Time;durP1;ratioP1;P1;durP2;ratioP2;P2;SDS_P1;SDS_P2;PMS_P1;PMS_P2;Temp;Humidity;BMP_temperature;BMP_pressure;BME280_temperature;BME280_humidity;BME280_pressure;Samples;Min_cycle;Max_cycle;Signal;HPM_P1;HPM_P2
2021/07/14 00:02:48;;;;;;;18.40;16.67;;;;;;;24.73;64.97;98343.27;2273278;77;20954;-78
2021/07/14 00:05:49;;;;;;;20.12;18.05;;;;;;;24.73;64.90;98345.94;2282140;78;20937;-78
2021/07/14 00:08:49;;;;;;;18.80;17.20;;;;;;;24.64;65.03;98342.91;2281972;78;21310;-78
2021/07/14 00:11:57;;;;;;;18.60;16.90;;;;;;;24.57;65.14;98338.36;2281386;78;21322;-77
2021/07/14 00:15:03;;;;;;;34.05;19.02;;;;;;;24.55;65.13;98340.25;2281116;78;21366;-78
2021/07/14 00:22:07;;;;;;;22.02;17.32;;;;;;;24.54;65.27;98338.52;2280690;78;20986;-76
2021/07/14 00:24:20;;;;;;;18.95;17.05;;;;;;;24.58;65.21;98339.22;2281698;78;20922;-78
2021/07/14 00:27:23;;;;;;;19.07;17.27;;;;;;;24.54;65.19;98341.19;2281650;78;21282;-78
2021/07/14 00:30:25;;;;;;;19.70;17.75;;;;;;;24.57;65.43;98338.36;2281755;78;20966;-77
2021/07/14 00:33:27;;;;;;;20.08;18.12;;;;;;;24.64;65.17;98346.91;2281762;78;20962;-77
2021/07/14 00:36:28;;;;;;;19.30;17.30;;;;;;;24.65;65.07;98340.16;2281812;78;20907;-77
2021/07/14 00:39:29;;;;;;;20.60;18.12;;;;;;;24.63;65.15;98344.71;2282122;78;20930;-79
2021/07/14 00:42:30;;;;;;;19.57;17.67;;;;;;;24.63;65.05;98342.52;2282048;78;21275;-78
2021/07/14 00:45:31;;;;;;;20.40;18.40;;;;;;;24.62;64.96;98349.66;2281848;78;20985;-78
2021/07/14 00:48:31;;;;;;;23.07;18.12;;;;;;;24.57;64.82;98348.17;2281717;78;20906;-78
2021/07/14 00:51:33;;;;;;;19.07;17.27;;;;;;;24.57;65.20;98350.84;2281916;78;20974;-77
2021/07/14 00:54:33;;;;;;;18.90;17.10;;;;;;;24.62;65.05;98353.66;2281555;78;20903;-77
2021/07/14 00:57:34;;;;;;;42.08;18.02;;;;;;;24.59;65.12;98355.16;2281811;78;21290;-77
2021/07/14 01:00:35;;;;;;;19.80;17.87;;;;;;;24.55;64.82;98355.39;2281609;78;20937;-78
2021/07/14 01:03:36;;;;;;;37.42;18.60;;;;;;;24.55;65.12;98359.39;2252766;78;21332;-78
2021/07/14 01:06:37;;;;;;;27.27;18.77;;;;;;;24.51;65.14;98357.36;2249194;79;20947;-77
2021/07/14 01:09:38;;;;;;;26.25;17.25;;;;;;;24.53;65.38;98354.61;2248900;79;21008;-77
2021/07/14 01:12:40;;;;;;;19.60;17.73;;;;;;;24.56;65.09;98349.98;2249333;79;21245;-78
2021/07/14 01:15:43;;;;;;;18.12;16.52;;;;;;;24.57;64.98;98351.70;2249301;79;20936;-78
2021/07/14 01:18:43;;;;;;;22.40;17.80;;;;;;;24.60;65.00;98351.55;2249347;79;21339;-77
2021/07/14 01:21:44;;;;;;;18.15;16.25;;;;;;;24.60;64.89;98350.20;2249406;79;20861;-77
2021/07/14 01:24:45;;;;;;;19.45;17.52;;;;;;;24.61;64.98;98346.59;2248925;79;21017;-78
2021/07/14 01:27:46;;;;;;;20.10;16.55;;;;;;;24.46;65.06;98347.41;2249609;79;21288;-78
2021/07/14 01:30:47;;;;;;;17.12;15.53;;;;;;;24.44;65.02;98338.61;2249467;79;20892;-78
2021/07/14 01:33:49;;;;;;;18.82;17.20;;;;;;;24.29;64.56;98339.41;2249487;79;20893;-77
2021/07/14 01:36:50;;;;;;;19.60;17.48;;;;;;;24.19;65.39;98338.09;2249361;79;20900;-78
2021/07/14 01:39:51;;;;;;;21.82;18.98;;;;;;;24.18;65.82;98329.70;2249447;79;20873;-78
2021/07/14 01:42:52;;;;;;;21.55;17.70;;;;;;;24.25;65.68;98333.31;2249467;79;20917;-77
2021/07/14 01:45:54;;;;;;;22.55;18.20;;;;;;;24.26;65.84;98337.70;2249502;79;20964;-78
2021/07/14 01:48:55;;;;;;;20.80;18.65;;;;;;;24.32;65.77;98333.92;2249421;79;20967;-78
2021/07/14 01:51:56;;;;;;;18.37;16.75;;;;;;;24.36;65.63;98338.16;2249500;79;20893;-78
2021/07/14 01:54:57;;;;;;;20.77;17.42;;;;;;;24.35;65.59;98339.09;2249488;79;20905;-77
2021/07/14 01:57:57;;;;;;;19.42;17.27;;;;;;;24.40;65.53;98335.72;2249594;79;21063;-77
2021/07/14 02:00:58;;;;;;;20.68;18.60;;;;;;;24.36;65.32;98336.82;2249404;79;20873;-77
2021/07/14 02:07:18;;;;;;;19.20;17.27;;;;;;;24.22;64.92;98340.13;2281622;78;21378;-78
2021/07/14 02:10:19;;;;;;;18.10;16.50;;;;;;;23.97;64.97;98337.84;2281988;78;20922;-77
2021/07/14 02:13:20;;;;;;;18.60;16.90;;;;;;;23.69;65.95;98332.17;2281662;78;21302;-78
2021/07/14 02:16:22;;;;;;;18.98;17.07;;;;;;;23.56;66.14;98330.58;2281518;78;21029;-78
2021/07/14 02:19:22;;;;;;;86.92;22.25;;;;;;;23.66;66.83;98335.84;2281653;78;21298;-77
2021/07/14 02:22:23;;;;;;;24.18;17.55;;;;;;;23.78;66.65;98342.38;2281545;78;20933;-77
2021/07/14 02:25:25;;;;;;;25.48;18.92;;;;;;;23.90;66.60;98343.09;2281535;78;20946;-78
2021/07/14 02:28:26;;;;;;;19.15;17.27;;;;;;;24.01;66.37;98338.56;2281666;78;20933;-78
2021/07/14 02:31:27;;;;;;;27.67;18.42;;;;;;;24.08;66.08;98342.17;2281546;78;21069;-78
2021/07/14 02:34:28;;;;;;;70.20;22.13;;;;;;;24.08;65.90;98341.30;2281734;78;21279;-79
2021/07/14 02:37:29;;;;;;;20.80;18.60;;;;;;;23.92;65.25;98340.35;2281738;78;21255;-79
2021/07/14 02:40:31;;;;;;;26.20;19.00;;;;;;;23.68;66.38;98339.30;2282029;78;20906;-78
2021/07/14 02:43:32;;;;;;;19.85;18.07;;;;;;;23.82;66.67;98346.14;2281793;78;20878;-78
2021/07/14 02:46:33;;;;;;;21.75;18.12;;;;;;;23.95;66.34;98336.20;2281699;78;20960;-78
2021/07/14 02:49:34;;;;;;;20.70;18.60;;;;;;;24.00;65.90;98337.70;2281658;78;21310;-76
2021/07/14 02:52:35;;;;;;;31.62;19.98;;;;;;;23.95;65.90;98341.06;2281692;78;20933;-78
2021/07/14 02:55:36;;;;;;;22.35;18.90;;;;;;;23.90;66.15;98339.09;2281845;78;20903;-78
2021/07/14 02:58:37;;;;;;;20.10;18.30;;;;;;;23.93;66.04;98344.27;2282030;78;20918;-79
2021/07/14 03:01:38;;;;;;;37.33;20.27;;;;;;;23.95;66.01;98346.39;2280398;78;20949;-78
2021/07/14 03:04:39;;;;;;;20.50;18.32;;;;;;;23.96;65.87;98348.13;2249387;79;21349;-77
2021/07/14 03:07:40;;;;;;;20.25;18.37;;;;;;;23.91;65.92;98335.49;2249637;79;20920;-79
2021/07/14 03:10:41;;;;;;;20.00;18.02;;;;;;;23.94;66.08;98344.67;2250855;79;20896;-79
2021/07/14 03:13:42;;;;;;;19.80;17.95;;;;;;;23.80;66.24;98347.16;2250978;79;20900;-79
2021/07/14 03:16:43;;;;;;;20.97;18.12;;;;;;;23.81;66.46;98352.88;2251025;79;20971;-79
2021/07/14 03:19:44;;;;;;;20.00;18.20;;;;;;;23.83;66.55;98346.53;2251006;79;20952;-79
2021/07/14 03:22:45;;;;;;;19.45;17.60;;;;;;;23.83;66.46;98349.67;2250714;79;20960;-79
2021/07/14 03:25:46;;;;;;;19.80;17.87;;;;;;;23.79;66.55;98349.42;2250830;79;20960;-80
2021/07/14 03:28:47;;;;;;;20.45;18.45;;;;;;;23.80;66.79;98353.34;2250439;79;20943;-80
2021/07/14 03:31:47;;;;;;;19.60;17.77;;;;;;;23.88;66.67;98351.64;2250284;79;21271;-80
2021/07/14 03:34:49;;;;;;;172.50;30.25;;;;;;;23.85;66.21;98350.92;2250254;79;20913;-77
2021/07/14 03:37:52;;;;;;;51.80;20.30;;;;;;;23.74;66.56;98347.45;2250082;79;20939;-79
2021/07/14 03:40:53;;;;;;;29.07;19.00;;;;;;;23.66;66.68;98357.16;2250759;79;20916;-80
2021/07/14 03:43:54;;;;;;;20.95;18.92;;;;;;;23.63;67.01;98349.31;2250646;79;21280;-80
2021/07/14 03:46:55;;;;;;;28.83;17.80;;;;;;;23.63;67.05;98351.12;2249833;79;20991;-79
2021/07/14 03:49:55;;;;;;;27.20;17.42;;;;;;;23.60;66.89;98350.80;2249930;79;21364;-80
2021/07/14 03:52:57;;;;;;;20.30;18.17;;;;;;;23.58;67.35;98350.48;2249568;79;20952;-79
2021/07/14 03:55:58;;;;;;;18.67;16.87;;;;;;;23.62;67.00;98351.59;2249714;79;20877;-79
2021/07/14 03:58:59;;;;;;;58.38;20.35;;;;;;;23.65;67.65;98346.58;2249906;79;20992;-79
2021/07/14 04:02:00;;;;;;;20.17;18.07;;;;;;;23.71;67.26;98351.61;2249626;77;20972;-79
2021/07/14 04:05:01;;;;;;;19.05;17.15;;;;;;;23.71;67.24;98349.80;2249795;79;20931;-82
2021/07/14 04:08:05;;;;;;;20.62;18.32;;;;;;;23.67;67.72;98346.03;2249368;79;20948;-80
2021/07/14 04:11:06;;;;;;;20.25;18.02;;;;;;;23.81;67.71;98339.55;2248977;79;20944;-80
2021/07/14 04:14:07;;;;;;;20.72;18.62;;;;;;;23.95;67.68;98342.39;2249109;79;20909;-80
2021/07/14 04:17:08;;;;;;;20.77;17.62;;;;;;;24.05;67.34;98335.66;2249147;79;20990;-81
2021/07/14 04:20:09;;;;;;;184.15;30.40;;;;;;;24.20;66.92;98334.02;2249200;79;20952;-79
2021/07/14 04:23:10;;;;;;;18.92;17.02;;;;;;;24.32;66.60;98339.25;2249709;79;21300;-80
2021/07/14 04:26:13;;;;;;;22.02;18.75;;;;;;;24.36;66.13;98340.82;2249857;79;21397;-80
2021/07/14 04:29:14;;;;;;;22.67;17.67;;;;;;;24.38;66.34;98337.13;2250027;79;20964;-79
2021/07/14 04:32:14;;;;;;;19.02;17.00;;;;;;;24.57;66.11;98342.36;2250325;79;20916;-79
2021/07/14 04:35:16;;;;;;;21.30;17.42;;;;;;;24.71;65.71;98342.50;2249692;79;21399;-80
2021/07/14 04:38:17;;;;;;;18.07;16.27;;;;;;;24.85;65.23;98349.77;2250439;79;20904;-80
2021/07/14 04:41:18;;;;;;;17.77;16.12;;;;;;;24.96;64.91;98342.51;2250076;79;20892;-79
2021/07/14 04:45:04;;;;;;;17.70;16.20;;;;;;;25.02;64.94;98343.55;2250235;79;20916;-79
2021/07/14 04:47:21;;;;;;;19.23;16.13;;;;;;;25.20;64.73;98332.36;2246030;79;21134;-80
2021/07/14 04:50:22;;;;;;;47.48;19.10;;;;;;;25.40;64.05;98344.98;2250022;79;20944;-80
2021/07/14 04:53:23;;;;;;;25.25;17.02;;;;;;;25.45;63.67;98344.73;2249721;79;21261;-80
2021/07/14 04:56:24;;;;;;;52.67;18.95;;;;;;;25.62;63.58;98346.45;2249698;79;20924;-80
2021/07/14 04:59:25;;;;;;;63.90;31.05;;;;;;;25.74;63.18;98352.94;2249066;79;20916;-80
2021/07/14 05:02:26;;;;;;;44.20;31.17;;;;;;;25.78;62.93;98344.66;2247113;77;21345;-79
2021/07/14 05:05:27;;;;;;;33.20;29.57;;;;;;;25.86;62.79;98341.06;2234793;80;20928;-79
2021/07/14 05:08:28;;;;;;;31.55;27.13;;;;;;;25.99;62.32;98340.73;2234407;80;21351;-83
2021/07/14 05:11:29;;;;;;;36.38;29.75;;;;;;;26.13;61.98;98337.75;2235379;80;20917;-80
2021/07/14 05:14:30;;;;;;;25.77;23.10;;;;;;;26.27;61.59;98336.45;2234998;80;20893;-81
2021/07/14 05:17:31;;;;;;;28.75;20.85;;;;;;;26.39;61.10;98325.52;2234924;80;21193;-78
2021/07/14 05:20:32;;;;;;;25.52;18.45;;;;;;;26.52;60.83;98324.69;2235184;80;20925;-78
2021/07/14 05:23:33;;;;;;;28.25;18.98;;;;;;;26.70;60.51;98333.88;2235084;80;20920;-79
2021/07/14 05:26:34;;;;;;;23.42;17.10;;;;;;;26.79;60.04;98330.63;2235400;80;20932;-79
2021/07/14 05:29:35;;;;;;;348.82;312.38;;;;;;;26.91;59.76;98327.22;2234978;80;21407;-80
2021/07/14 05:32:36;;;;;;;361.68;283.25;;;;;;;26.98;59.30;98330.41;2234715;80;20920;-80
2021/07/14 05:35:37;;;;;;;354.75;276.35;;;;;;;27.03;58.81;98333.19;2235347;80;20928;-80
2021/07/14 05:38:38;;;;;;;666.50;556.83;;;;;;;27.06;58.74;98341.02;2235570;80;21326;-80
2021/07/14 05:41:41;;;;;;;688.50;539.27;;;;;;;27.17;58.59;98331.83;2235675;80;21268;-81
2021/07/14 05:44:45;;;;;;;357.05;240.70;;;;;;;27.31;58.28;98344.34;2235902;80;20973;-79
2021/07/14 05:47:48;;;;;;;453.10;341.90;;;;;;;27.32;57.73;98343.39;2234750;80;21052;-79
2021/07/14 05:50:49;;;;;;;475.63;353.27;;;;;;;27.41;57.50;98344.13;2235243;80;21347;-80
2021/07/14 05:53:50;;;;;;;431.43;300.07;;;;;;;27.55;57.15;98342.77;2235242;80;21420;-80
2021/07/14 05:56:51;;;;;;;601.70;467.07;;;;;;;27.55;56.67;98345.44;2235456;80;20897;-80
2021/07/14 05:59:52;;;;;;;206.35;130.25;;;;;;;27.58;56.67;98347.92;2234648;80;20976;-79
2021/07/14 06:02:53;;;;;;;90.97;62.38;;;;;;;27.73;56.35;98346.09;2245084;77;21327;-79
2021/07/14 06:05:54;;;;;;;20.62;18.50;;;;;;;27.85;56.15;98349.82;2291044;78;20919;-82
2021/07/14 06:08:55;;;;;;;18.27;16.42;;;;;;;27.93;55.64;98347.48;2291249;78;20959;-80
2021/07/14 06:11:56;;;;;;;21.42;16.30;;;;;;;28.01;55.72;98346.98;2290892;78;20916;-84
2021/07/14 06:14:58;;;;;;;472.93;382.00;;;;;;;28.13;55.32;98347.50;2291653;78;21324;-83
2021/07/14 06:17:59;;;;;;;28.02;20.92;;;;;;;28.16;54.86;98345.95;2291288;78;20995;-79
2021/07/14 06:21:00;;;;;;;131.03;88.70;;;;;;;28.21;55.00;98348.70;2291601;78;21288;-81
2021/07/14 06:24:01;;;;;;;58.00;39.03;;;;;;;28.40;54.61;98344.31;2291735;78;21058;-80
2021/07/14 06:27:01;;;;;;;382.02;282.55;;;;;;;28.54;54.33;98342.88;2291637;78;20932;-80
2021/07/14 06:30:05;;;;;;;761.33;572.70;;;;;;;28.62;54.24;98344.20;2290597;78;21304;-80
2021/07/14 06:33:05;;;;;;;649.60;460.90;;;;;;;28.74;53.76;98335.30;2290465;77;20958;-81
2021/07/14 06:36:06;;;;;;;303.48;193.78;;;;;;;28.82;53.79;98339.16;2290956;78;20944;-80
2021/07/14 06:39:07;;;;;;;51.60;33.40;;;;;;;28.90;53.48;98338.65;2290806;78;20951;-79
2021/07/14 06:42:09;;;;;;;69.77;47.13;;;;;;;29.03;53.50;98334.13;2291103;78;20928;-80
2021/07/14 06:45:10;;;;;;;21.77;18.37;;;;;;;29.14;53.38;98338.25;2291660;77;21023;-82
2021/07/14 06:48:11;;;;;;;621.15;487.55;;;;;;;29.16;52.96;98333.62;2291522;78;20956;-80
2021/07/14 06:51:12;;;;;;;704.72;517.12;;;;;;;29.25;53.12;98331.23;2291311;78;20924;-80
2021/07/14 06:54:13;;;;;;;1270.18;535.95;;;;;;;29.43;52.92;98332.14;2291432;78;20932;-80
2021/07/14 06:57:14;;;;;;;437.77;315.65;;;;;;;29.52;52.93;98338.70;2291085;78;21101;-81
2021/07/14 07:00:15;;;;;;;123.58;82.60;;;;;;;29.59;52.29;98331.91;2291714;78;20920;-81
2021/07/14 07:03:18;;;;;;;198.20;128.30;;;;;;;29.64;52.23;98335.59;2289081;78;21593;-80
2021/07/14 07:06:19;;;;;;;82.30;59.10;;;;;;;29.83;52.28;98327.88;2281549;78;20930;-80
2021/07/14 07:09:19;;;;;;;25.70;20.72;;;;;;;30.00;51.92;98330.16;2281150;78;20992;-81
2021/07/14 07:12:21;;;;;;;17.35;15.20;;;;;;;30.03;51.42;98331.30;2281739;78;20958;-79
2021/07/14 07:15:21;;;;;;;24.05;18.98;;;;;;;30.07;51.19;98338.66;2282201;78;21259;-79
2021/07/14 07:18:25;;;;;;;19.17;16.87;;;;;;;30.18;50.71;98334.67;2281565;78;21339;-80
2021/07/14 07:21:26;;;;;;;21.87;15.68;;;;;;;30.25;50.16;98337.75;2281680;78;20962;-84
2021/07/14 07:24:27;;;;;;;23.40;15.50;;;;;;;30.36;50.24;98350.80;2281526;78;20946;-81
2021/07/14 07:27:34;;;;;;;22.45;14.78;;;;;;;30.54;50.01;98343.62;2282663;78;20989;-82
2021/07/14 07:30:31;;;;;;;21.40;14.47;;;;;;;30.57;49.32;98344.73;2280457;78;21044;-80
2021/07/14 07:33:32;;;;;;;17.77;14.18;;;;;;;30.61;49.29;98346.23;2281501;78;21300;-80
2021/07/14 07:36:33;;;;;;;15.35;13.93;;;;;;;30.70;49.04;98346.87;2281049;78;20918;-80
2021/07/14 07:39:34;;;;;;;17.48;13.60;;;;;;;30.75;48.60;98347.37;2281675;78;20883;-80
2021/07/14 07:42:35;;;;;;;22.95;14.18;;;;;;;30.90;48.62;98348.86;2280956;78;20958;-79
2021/07/14 07:45:36;;;;;;;17.05;13.58;;;;;;;31.08;49.25;98345.67;2281077;78;20922;-79
2021/07/14 07:48:37;;;;;;;16.85;13.38;;;;;;;31.27;48.62;98340.59;2281109;78;21385;-80
2021/07/14 07:51:38;;;;;;;15.23;13.55;;;;;;;31.34;48.53;98339.97;2281611;78;21254;-77
2021/07/14 07:54:39;;;;;;;16.10;14.15;;;;;;;31.37;47.85;98340.22;2281274;78;21331;-78
2021/07/14 07:57:40;;;;;;;14.78;13.32;;;;;;;31.40;47.86;98344.50;2281203;78;20949;-76
2021/07/14 08:00:41;;;;;;;22.55;14.87;;;;;;;31.48;47.98;98356.38;2280845;78;20902;-77
2021/07/14 08:03:42;;;;;;;22.05;13.88;;;;;;;31.47;47.42;98355.16;2272249;78;20934;-78
2021/07/14 08:06:43;;;;;;;23.40;13.93;;;;;;;31.49;47.98;98362.14;2249000;79;20963;-78
2021/07/14 08:09:44;;;;;;;19.27;14.43;;;;;;;31.60;47.97;98362.13;2248433;79;20939;-77
2021/07/14 08:12:46;;;;;;;20.75;13.75;;;;;;;31.71;47.94;98365.33;2248866;79;21004;-81
2021/07/14 08:15:47;;;;;;;15.58;13.90;;;;;;;31.92;47.76;98365.39;2249884;79;20912;-81
2021/07/14 08:18:48;;;;;;;20.50;13.90;;;;;;;31.85;47.89;98370.94;2249433;79;20998;-80
2021/07/14 08:21:49;;;;;;;17.23;13.32;;;;;;;31.92;48.30;98369.44;2249275;79;20913;-84
2021/07/14 08:24:50;;;;;;;18.80;14.18;;;;;;;32.02;47.83;98370.39;2249272;79;20912;-80
2021/07/14 08:27:51;;;;;;;16.52;13.43;;;;;;;32.02;47.99;98373.09;2248888;79;20916;-79
2021/07/14 08:30:53;;;;;;;336.50;276.80;;;;;;;31.94;47.52;98371.52;2249554;79;21348;-80
2021/07/14 08:33:55;;;;;;;637.30;493.23;;;;;;;31.93;47.28;98372.02;2249552;79;20931;-79
2021/07/14 08:36:58;;;;;;;78.52;51.70;;;;;;;32.06;47.25;98371.85;2249677;79;20999;-81
2021/07/14 08:39:59;;;;;;;19.73;16.60;;;;;;;32.33;47.45;98378.69;2250674;79;21321;-80
2021/07/14 08:43:00;;;;;;;22.70;15.25;;;;;;;32.56;47.02;98373.53;2249217;79;20901;-80
2021/07/14 08:46:00;;;;;;;18.92;14.90;;;;;;;32.59;46.89;98380.03;2248863;79;21320;-80
2021/07/14 08:49:03;;;;;;;32.83;21.60;;;;;;;32.58;46.85;98375.12;2248851;79;20957;-80
2021/07/14 08:52:04;;;;;;;22.93;15.32;;;;;;;32.61;46.91;98375.34;2249369;79;21288;-79
2021/07/14 08:55:05;;;;;;;166.22;135.63;;;;;;;32.76;46.69;98371.33;2248904;79;21321;-81
2021/07/14 08:58:06;;;;;;;582.52;389.10;;;;;;;32.83;46.24;98374.39;2249048;79;20960;-79
2021/07/14 09:01:09;;;;;;;;;;;;;;;32.84;46.00;98370.20;2229672;79;20923;-79
2021/07/14 09:04:11;;;;;;;34.98;21.75;;;;;;;32.81;45.46;98377.72;2263146;77;20084;-79
2021/07/14 09:07:12;;;;;;;17.02;14.38;;;;;;;32.87;45.30;98372.64;2291238;78;20979;-84
2021/07/14 09:10:13;;;;;;;19.40;13.95;;;;;;;32.83;44.84;98373.03;2291930;78;20920;-79
2021/07/14 09:13:15;;;;;;;22.55;14.47;;;;;;;32.75;44.61;98371.45;2290611;78;21023;-80
2021/07/14 09:16:15;;;;;;;760.55;617.17;;;;;;;32.87;44.17;98375.84;2291050;78;20911;-82
2021/07/14 09:19:16;;;;;;;433.23;323.50;;;;;;;32.83;43.92;98375.74;2291599;78;21388;-80
2021/07/14 09:22:17;;;;;;;38.25;19.37;;;;;;;32.72;43.91;98377.13;2291726;78;20920;-80
2021/07/14 09:25:18;;;;;;;21.52;14.68;;;;;;;32.71;43.92;98387.58;2291113;78;20917;-80
2021/07/14 09:28:19;;;;;;;296.50;58.80;;;;;;;32.84;43.57;98379.66;2290743;78;20948;-81
2021/07/14 09:31:20;;;;;;;198.78;160.03;;;;;;;32.96;43.45;98384.53;2291900;78;20936;-79
2021/07/14 09:34:21;;;;;;;63.02;43.55;;;;;;;33.00;43.66;98390.52;2291910;78;21284;-80
2021/07/14 09:37:22;;;;;;;413.35;319.60;;;;;;;33.27;43.11;98385.89;2291644;78;20924;-79
2021/07/14 09:40:23;;;;;;;185.63;124.62;;;;;;;33.32;42.89;98389.94;2291547;78;20924;-79
2021/07/14 09:43:24;;;;;;;500.48;394.23;;;;;;;33.41;42.67;98396.38;2291991;78;21011;-80
2021/07/14 09:46:30;;;;;;;39.27;24.20;;;;;;;33.38;42.58;98401.56;2291606;78;20915;-81
2021/07/14 09:49:31;;;;;;;25.57;15.55;;;;;;;33.51;42.35;98398.13;2290882;78;21263;-80
2021/07/14 09:52:32;;;;;;;26.90;14.05;;;;;;;33.50;41.63;98396.91;2291340;77;21391;-81
2021/07/14 09:55:33;;;;;;;21.68;13.05;;;;;;;33.64;41.73;98394.33;2291190;78;21351;-81
2021/07/14 09:58:34;;;;;;;18.52;13.10;;;;;;;33.81;41.67;98393.66;2291213;78;20913;-80
2021/07/14 10:01:36;;;;;;;22.62;11.80;;;;;;;33.74;40.40;98393.36;2290806;78;20916;-79
2021/07/14 10:04:37;;;;;;;352.30;249.22;;;;;;;33.64;40.21;98391.63;2286654;78;21321;-80
2021/07/14 10:07:38;;;;;;;32.83;17.70;;;;;;;33.42;39.24;98389.98;2281327;78;21342;-81
2021/07/14 10:10:39;;;;;;;23.80;11.63;;;;;;;33.42;39.24;98389.98;2281038;78;20899;-80
2021/07/14 10:13:40;;;;;;;28.23;12.45;;;;;;;33.36;39.72;98388.67;2280970;78;20981;-80
2021/07/14 10:16:41;;;;;;;20.08;11.57;;;;;;;33.53;39.38;98389.38;2281728;78;20961;-80
2021/07/14 10:19:42;;;;;;;22.95;12.23;;;;;;;33.43;39.50;98387.14;2281239;78;20993;-80
2021/07/14 10:22:43;;;;;;;40.58;13.62;;;;;;;33.50;39.92;98388.80;2280695;78;20922;-81
2021/07/14 10:25:44;;;;;;;26.60;13.18;;;;;;;33.55;40.11;98384.69;2280594;78;20966;-80
2021/07/14 10:28:46;;;;;;;24.70;12.82;;;;;;;33.43;40.20;98379.02;2279925;78;20969;-78
2021/07/14 10:31:47;;;;;;;21.82;12.63;;;;;;;33.35;40.62;98376.64;2280276;78;20919;-80
2021/07/14 10:34:48;;;;;;;18.57;12.33;;;;;;;33.47;40.38;98374.19;2280903;78;20934;-80
2021/07/14 10:37:50;;;;;;;57.48;36.58;;;;;;;33.49;39.95;98383.88;2280804;78;20914;-79
2021/07/14 10:40:50;;;;;;;26.10;13.83;;;;;;;33.78;39.68;98385.82;2281078;78;20886;-79
2021/07/14 10:43:54;;;;;;;22.65;12.43;;;;;;;34.01;38.98;98380.59;2281922;78;20914;-78
2021/07/14 10:46:54;;;;;;;;;;;;;;;34.13;38.88;98384.87;2284373;78;20965;-79
2021/07/14 10:49:55;;;;;;;27.00;22.13;;;;;;;34.44;38.42;98382.06;2281863;78;20101;-84
2021/07/14 10:52:56;;;;;;;219.97;197.05;;;;;;;34.62;38.64;98381.69;2281964;78;21282;-82
2021/07/14 10:55:57;;;;;;;46.83;31.15;;;;;;;34.85;36.75;98378.73;2282357;78;20992;-83
2021/07/14 10:59:00;;;;;;;28.87;20.08;;;;;;;35.16;36.29;98378.85;2281604;78;21143;-81
2021/07/14 11:02:02;;;;;;;60.55;23.60;;;;;;;35.50;35.33;98369.67;2281184;78;20961;-81
2021/07/14 11:05:03;;;;;;;67.73;50.57;;;;;;;35.78;35.18;98361.05;2266113;77;20937;-84
2021/07/14 11:08:06;;;;;;;41.73;28.57;;;;;;;36.03;35.41;98356.27;2250015;79;21007;-82
2021/07/14 11:11:07;;;;;;;70.57;16.55;;;;;;;36.27;34.28;98354.28;2249635;79;21004;-83
2021/07/14 11:14:13;;;;;;;31.35;13.70;;;;;;;36.10;33.83;98357.00;2249583;79;20924;-81
2021/07/14 11:17:14;;;;;;;37.85;19.55;;;;;;;36.22;33.99;98343.03;2249327;79;20996;-81
2021/07/14 11:20:15;;;;;;;43.52;18.95;;;;;;;36.46;33.09;98345.17;2249079;79;20968;-82
2021/07/14 11:23:17;;;;;;;293.40;46.83;;;;;;;36.31;32.94;98343.99;2249006;79;21627;-79
2021/07/14 11:26:19;;;;;;;36.48;11.55;;;;;;;36.17;33.31;98347.23;2249738;79;20996;-81
2021/07/14 11:29:22;;;;;;;21.97;9.73;;;;;;;36.06;33.22;98345.09;2250279;79;20991;-81
2021/07/14 11:32:23;;;;;;;31.17;13.05;;;;;;;36.21;32.13;98352.70;2249939;79;20939;-80
2021/07/14 11:35:24;;;;;;;55.23;30.32;;;;;;;36.45;31.68;98353.48;2249517;79;20900;-82
2021/07/14 11:38:26;;;;;;;26.43;9.97;;;;;;;36.38;32.35;98354.58;2250090;79;20927;-81
2021/07/14 11:41:26;;;;;;;24.35;11.60;;;;;;;36.56;30.74;98351.88;2249117;79;21454;-81
2021/07/14 11:44:27;;;;;;;22.20;10.95;;;;;;;36.43;31.52;98350.92;2249418;79;20955;-81
2021/07/14 11:47:28;;;;;;;26.02;11.38;;;;;;;35.59;31.95;98351.66;2249637;79;20960;-81
2021/07/14 11:50:29;;;;;;;22.87;10.85;;;;;;;35.26;32.97;98356.61;2249200;79;20963;-78
2021/07/14 11:53:31;;;;;;;32.28;10.78;;;;;;;35.25;33.12;98357.61;2249507;79;21112;-80
2021/07/14 11:56:32;;;;;;;659.63;504.97;;;;;;;35.10;31.98;98359.10;2250756;79;20982;-81
2021/07/14 11:59:33;;;;;;;20.15;11.55;;;;;;;34.96;32.34;98362.28;2249874;79;21245;-80
2021/07/14 12:02:34;;;;;;;259.83;197.05;;;;;;;34.84;32.19;98358.04;2249310;79;20945;-81
2021/07/14 12:05:35;;;;;;;26.07;10.82;;;;;;;34.84;32.58;98363.46;2267836;78;20965;-85
2021/07/14 12:08:36;;;;;;;21.42;9.98;;;;;;;34.83;32.23;98364.46;2281470;78;20953;-81
2021/07/14 12:11:37;;;;;;;24.20;10.45;;;;;;;34.92;32.96;98364.94;2281495;77;20949;-81
2021/07/14 12:14:38;;;;;;;437.35;333.68;;;;;;;35.08;33.02;98364.67;2281787;78;20962;-82
2021/07/14 12:17:38;;;;;;;28.67;18.45;;;;;;;35.12;33.33;98366.09;2281378;78;20953;-81
2021/07/14 12:20:39;;;;;;;21.07;11.03;;;;;;;35.33;33.09;98357.75;2281759;78;21321;-82
2021/07/14 12:23:43;;;;;;;35.70;20.10;;;;;;;35.28;33.15;98358.67;2281885;78;20906;-81
2021/07/14 12:26:44;;;;;;;14.13;10.78;;;;;;;35.63;33.24;98351.71;2281738;78;21394;-82
2021/07/14 12:29:45;;;;;;;17.50;11.93;;;;;;;35.78;32.89;98348.83;2281990;78;21025;-82
2021/07/14 12:32:46;;;;;;;17.00;11.85;;;;;;;35.76;33.07;98350.84;2281760;78;20921;-83
2021/07/14 12:35:47;;;;;;;33.55;18.57;;;;;;;35.71;33.58;98345.02;2281715;78;20903;-81
2021/07/14 12:38:48;;;;;;;17.52;14.73;;;;;;;35.85;33.97;98347.75;2281774;78;20898;-81
2021/07/14 12:41:49;;;;;;;17.12;14.47;;;;;;;35.84;34.31;98344.68;2281196;78;20934;-81
2021/07/14 12:44:51;;;;;;;20.52;12.82;;;;;;;35.70;35.01;98346.02;2281548;78;21363;-82
2021/07/14 12:47:53;;;;;;;21.93;13.08;;;;;;;35.56;35.65;98347.89;2281608;78;20949;-81
2021/07/14 12:50:54;;;;;;;16.70;11.38;;;;;;;35.48;36.23;98349.13;2281612;78;21279;-81
2021/07/14 12:53:55;;;;;;;28.25;12.93;;;;;;;35.50;36.41;98350.67;2282062;78;20950;-82
2021/07/14 12:56:56;;;;;;;24.47;13.43;;;;;;;35.34;36.51;98352.69;2280799;78;21422;-81
2021/07/14 12:59:57;;;;;;;26.97;12.82;;;;;;;35.06;37.35;98353.62;2280883;78;20957;-81
2021/07/14 13:02:58;;;;;;;27.60;13.23;;;;;;;34.96;37.31;98358.22;2281493;78;20966;-82
2021/07/14 13:05:59;;;;;;;30.65;13.90;;;;;;;35.10;37.08;98359.10;2285958;77;20991;-81
2021/07/14 13:09:01;;;;;;;21.35;12.70;;;;;;;35.22;37.94;98357.91;2291037;78;20995;-80
2021/07/14 13:12:02;;;;;;;17.25;12.58;;;;;;;35.07;36.78;98369.75;2290822;78;20972;-81
2021/07/14 13:15:03;;;;;;;27.37;15.68;;;;;;;34.74;38.16;98369.73;2290691;78;20911;-81
2021/07/14 13:18:04;;;;;;;16.57;14.00;;;;;;;34.81;37.88;98370.85;2290513;78;21256;-84
2021/07/14 13:21:06;;;;;;;21.37;13.05;;;;;;;34.85;37.64;98365.17;2290721;78;20976;-81
2021/07/14 13:24:10;;;;;;;20.20;12.60;;;;;;;35.14;37.06;98374.08;2291065;78;20880;-81
2021/07/14 13:27:11;;;;;;;15.65;12.15;;;;;;;35.12;36.62;98369.30;2291422;78;20889;-83
2021/07/14 13:30:11;;;;;;;23.38;13.70;;;;;;;35.22;36.86;98367.41;2291053;78;20943;-82
2021/07/14 13:33:12;;;;;;;18.12;13.28;;;;;;;35.26;37.29;98365.25;2290883;78;20885;-82
2021/07/14 13:36:13;;;;;;;26.97;14.00;;;;;;;35.12;37.45;98366.09;2291116;78;20924;-82
2021/07/14 13:39:17;;;;;;;30.75;13.10;;;;;;;35.10;37.50;98368.59;2291507;78;20940;-83
2021/07/14 13:42:18;;;;;;;19.32;13.22;;;;;;;34.96;37.43;98369.06;2291159;77;21008;-82
2021/07/14 13:45:19;;;;;;;18.50;13.25;;;;;;;34.86;38.27;98366.88;2291499;78;20905;-85
2021/07/14 13:48:20;;;;;;;21.20;14.00;;;;;;;34.99;38.46;98375.55;2291290;78;20995;-82
2021/07/14 13:51:21;;;;;;;17.35;13.18;;;;;;;34.95;38.66;98376.84;2291352;78;20992;-83
2021/07/14 13:54:22;;;;;;;22.40;13.22;;;;;;;34.97;38.70;98370.78;2291509;78;20936;-82
2021/07/14 13:57:25;;;;;;;18.67;13.53;;;;;;;35.00;37.99;98378.62;2291561;78;20881;-81
2021/07/14 14:00:26;;;;;;;;;;;;;;;34.98;38.77;98373.84;2294264;78;20972;-83